sensor_id;sensor_type;location;lat;lon;timestamp;P1;durP1;ratioP1;P2;durP2;ratioP2
7359;SDS011;3720;48.274;7.796;2024-01-11T00:02:11;67.30;;;32.03;;
7359;SDS011;3720;48.274;7.796;2024-01-11T00:04:43;67.77;;;32.17;;
7359;SDS011;3720;48.274;7.796;2024-01-11T00:07:16;66.57;;;30.60;;
7359;SDS011;3720;48.274;7.796;2024-01-11T00:09:48;63.33;;;29.83;;
7359;SDS011;3720;48.274;7.796;2024-01-11T00:12:20;78.43;;;36.87;;
7359;SDS011;3720;48.274;7.796;2024-01-11T00:14:52;66.83;;;32.80;;
7359;SDS011;3720;48.274;7.796;2024-01-11T00:17:24;63.90;;;31.17;;
7359;SDS011;3720;48.274;7.796;2024-01-11T00:19:56;62.73;;;30.43;;
7359;SDS011;3720;48.274;7.796;2024-01-11T00:22:29;62.73;;;29.60;;
7359;SDS011;3720;48.274;7.796;2024-01-11T00:25:01;58.97;;;27.93;;
7359;SDS011;3720;48.274;7.796;2024-01-11T00:27:32;58.23;;;27.03;;
7359;SDS011;3720;48.274;7.796;2024-01-11T00:30:05;55.17;;;27.40;;
7359;SDS011;3720;48.274;7.796;2024-01-11T00:32:38;54.10;;;27.33;;
7359;SDS011;3720;48.274;7.796;2024-01-11T00:35:10;53.40;;;26.27;;
7359;SDS011;3720;48.274;7.796;2024-01-11T00:37:43;55.97;;;27.10;;
7359;SDS011;3720;48.274;7.796;2024-01-11T00:40:15;56.67;;;26.83;;
7359;SDS011;3720;48.274;7.796;2024-01-11T00:42:47;62.27;;;28.37;;
7359;SDS011;3720;48.274;7.796;2024-01-11T00:45:18;58.57;;;29.07;;
7359;SDS011;3720;48.274;7.796;2024-01-11T00:47:50;59.17;;;27.93;;
7359;SDS011;3720;48.274;7.796;2024-01-11T00:50:22;62.40;;;28.97;;
7359;SDS011;3720;48.274;7.796;2024-01-11T00:52:55;54.47;;;27.30;;
7359;SDS011;3720;48.274;7.796;2024-01-11T00:55:27;49.80;;;25.70;;
7359;SDS011;3720;48.274;7.796;2024-01-11T00:57:59;57.10;;;27.10;;
7359;SDS011;3720;48.274;7.796;2024-01-11T01:00:31;56.23;;;25.93;;
7359;SDS011;3720;48.274;7.796;2024-01-11T01:03:03;55.17;;;26.23;;
7359;SDS011;3720;48.274;7.796;2024-01-11T01:05:35;54.03;;;26.33;;
7359;SDS011;3720;48.274;7.796;2024-01-11T01:08:08;53.10;;;26.23;;
7359;SDS011;3720;48.274;7.796;2024-01-11T01:10:40;56.47;;;25.03;;
7359;SDS011;3720;48.274;7.796;2024-01-11T01:13:12;55.10;;;26.83;;
7359;SDS011;3720;48.274;7.796;2024-01-11T01:15:44;56.70;;;27.47;;
7359;SDS011;3720;48.274;7.796;2024-01-11T01:18:16;57.50;;;26.80;;
7359;SDS011;3720;48.274;7.796;2024-01-11T01:20:48;59.93;;;28.33;;
7359;SDS011;3720;48.274;7.796;2024-01-11T01:23:21;62.33;;;28.50;;
7359;SDS011;3720;48.274;7.796;2024-01-11T01:25:53;62.50;;;28.43;;
7359;SDS011;3720;48.274;7.796;2024-01-11T01:28:24;59.37;;;27.83;;
7359;SDS011;3720;48.274;7.796;2024-01-11T01:30:56;54.87;;;26.80;;
7359;SDS011;3720;48.274;7.796;2024-01-11T01:33:28;57.03;;;27.30;;
7359;SDS011;3720;48.274;7.796;2024-01-11T01:36:00;57.50;;;28.27;;
7359;SDS011;3720;48.274;7.796;2024-01-11T01:38:33;60.33;;;27.80;;
7359;SDS011;3720;48.274;7.796;2024-01-11T01:41:05;53.03;;;26.40;;
7359;SDS011;3720;48.274;7.796;2024-01-11T01:43:37;54.00;;;27.07;;
7359;SDS011;3720;48.274;7.796;2024-01-11T01:46:09;55.87;;;26.77;;
7359;SDS011;3720;48.274;7.796;2024-01-11T01:48:41;57.40;;;27.60;;
7359;SDS011;3720;48.274;7.796;2024-01-11T01:51:13;64.57;;;28.63;;
7359;SDS011;3720;48.274;7.796;2024-01-11T01:53:47;62.27;;;28.23;;
7359;SDS011;3720;48.274;7.796;2024-01-11T01:56:19;68.40;;;30.17;;
7359;SDS011;3720;48.274;7.796;2024-01-11T01:58:52;64.43;;;28.70;;
7359;SDS011;3720;48.274;7.796;2024-01-11T02:01:25;62.33;;;28.60;;
7359;SDS011;3720;48.274;7.796;2024-01-11T02:03:58;62.03;;;28.17;;
7359;SDS011;3720;48.274;7.796;2024-01-11T02:06:29;63.70;;;28.33;;
7359;SDS011;3720;48.274;7.796;2024-01-11T02:09:06;62.13;;;28.80;;
7359;SDS011;3720;48.274;7.796;2024-01-11T02:11:39;59.47;;;27.63;;
7359;SDS011;3720;48.274;7.796;2024-01-11T02:14:12;56.90;;;27.07;;
7359;SDS011;3720;48.274;7.796;2024-01-11T02:16:44;56.10;;;26.83;;
7359;SDS011;3720;48.274;7.796;2024-01-11T02:19:16;54.03;;;26.10;;
7359;SDS011;3720;48.274;7.796;2024-01-11T02:21:51;57.60;;;27.30;;
7359;SDS011;3720;48.274;7.796;2024-01-11T02:24:26;53.10;;;26.10;;
7359;SDS011;3720;48.274;7.796;2024-01-11T02:26:59;56.70;;;26.20;;
7359;SDS011;3720;48.274;7.796;2024-01-11T02:29:31;51.10;;;25.27;;
7359;SDS011;3720;48.274;7.796;2024-01-11T02:32:03;55.47;;;26.23;;
7359;SDS011;3720;48.274;7.796;2024-01-11T02:34:36;54.23;;;26.03;;
7359;SDS011;3720;48.274;7.796;2024-01-11T02:37:08;56.03;;;27.37;;
7359;SDS011;3720;48.274;7.796;2024-01-11T02:39:41;49.50;;;24.43;;
7359;SDS011;3720;48.274;7.796;2024-01-11T02:42:13;57.20;;;26.23;;
7359;SDS011;3720;48.274;7.796;2024-01-11T02:44:45;55.33;;;25.67;;
7359;SDS011;3720;48.274;7.796;2024-01-11T02:47:18;53.13;;;25.00;;
7359;SDS011;3720;48.274;7.796;2024-01-11T02:49:50;52.17;;;24.77;;
7359;SDS011;3720;48.274;7.796;2024-01-11T02:52:22;54.30;;;25.47;;
7359;SDS011;3720;48.274;7.796;2024-01-11T02:54:56;55.33;;;25.83;;
7359;SDS011;3720;48.274;7.796;2024-01-11T02:57:28;53.57;;;25.20;;
7359;SDS011;3720;48.274;7.796;2024-01-11T03:00:00;50.53;;;24.67;;
7359;SDS011;3720;48.274;7.796;2024-01-11T03:02:32;51.87;;;25.33;;
7359;SDS011;3720;48.274;7.796;2024-01-11T03:05:04;54.93;;;25.10;;
7359;SDS011;3720;48.274;7.796;2024-01-11T03:07:36;54.87;;;25.37;;
7359;SDS011;3720;48.274;7.796;2024-01-11T03:10:09;52.87;;;24.50;;
7359;SDS011;3720;48.274;7.796;2024-01-11T03:12:41;50.73;;;24.37;;
7359;SDS011;3720;48.274;7.796;2024-01-11T03:15:14;53.27;;;24.93;;
7359;SDS011;3720;48.274;7.796;2024-01-11T03:17:45;53.97;;;24.40;;
7359;SDS011;3720;48.274;7.796;2024-01-11T03:20:17;58.07;;;26.13;;
7359;SDS011;3720;48.274;7.796;2024-01-11T03:22:53;55.93;;;25.07;;
7359;SDS011;3720;48.274;7.796;2024-01-11T03:25:26;54.93;;;25.10;;
7359;SDS011;3720;48.274;7.796;2024-01-11T03:27:58;52.83;;;25.37;;
7359;SDS011;3720;48.274;7.796;2024-01-11T03:30:30;55.60;;;25.30;;
7359;SDS011;3720;48.274;7.796;2024-01-11T03:33:02;53.03;;;25.43;;
7359;SDS011;3720;48.274;7.796;2024-01-11T03:35:34;50.33;;;24.43;;
7359;SDS011;3720;48.274;7.796;2024-01-11T03:38:08;56.07;;;25.10;;
7359;SDS011;3720;48.274;7.796;2024-01-11T03:40:41;56.50;;;25.33;;
7359;SDS011;3720;48.274;7.796;2024-01-11T03:43:16;51.80;;;24.20;;
7359;SDS011;3720;48.274;7.796;2024-01-11T03:45:48;54.33;;;25.07;;
7359;SDS011;3720;48.274;7.796;2024-01-11T03:48:20;52.07;;;25.17;;
7359;SDS011;3720;48.274;7.796;2024-01-11T03:50:52;55.43;;;25.97;;
7359;SDS011;3720;48.274;7.796;2024-01-11T03:53:24;53.37;;;24.07;;
7359;SDS011;3720;48.274;7.796;2024-01-11T03:55:57;53.97;;;25.50;;
7359;SDS011;3720;48.274;7.796;2024-01-11T03:58:29;55.00;;;25.80;;
7359;SDS011;3720;48.274;7.796;2024-01-11T04:01:01;55.27;;;26.37;;
7359;SDS011;3720;48.274;7.796;2024-01-11T04:03:33;59.53;;;26.10;;
7359;SDS011;3720;48.274;7.796;2024-01-11T04:06:05;56.33;;;27.37;;
7359;SDS011;3720;48.274;7.796;2024-01-11T04:08:37;55.90;;;25.70;;
7359;SDS011;3720;48.274;7.796;2024-01-11T04:11:10;55.63;;;26.43;;
7359;SDS011;3720;48.274;7.796;2024-01-11T04:13:42;51.87;;;25.23;;
7359;SDS011;3720;48.274;7.796;2024-01-11T04:16:14;55.67;;;26.60;;
7359;SDS011;3720;48.274;7.796;2024-01-11T04:18:45;54.70;;;25.57;;
7359;SDS011;3720;48.274;7.796;2024-01-11T04:21:21;55.80;;;26.30;;
7359;SDS011;3720;48.274;7.796;2024-01-11T04:23:53;53.50;;;26.15;;
7359;SDS011;3720;48.274;7.796;2024-01-11T04:26:27;54.80;;;25.67;;
7359;SDS011;3720;48.274;7.796;2024-01-11T04:28:59;53.73;;;26.27;;
7359;SDS011;3720;48.274;7.796;2024-01-11T04:31:31;53.97;;;25.47;;
7359;SDS011;3720;48.274;7.796;2024-01-11T04:34:03;53.50;;;25.47;;
7359;SDS011;3720;48.274;7.796;2024-01-11T04:36:36;55.27;;;26.63;;
7359;SDS011;3720;48.274;7.796;2024-01-11T04:39:08;52.87;;;25.50;;
7359;SDS011;3720;48.274;7.796;2024-01-11T04:41:42;56.87;;;26.43;;
7359;SDS011;3720;48.274;7.796;2024-01-11T04:44:14;55.07;;;26.00;;
7359;SDS011;3720;48.274;7.796;2024-01-11T04:46:46;53.40;;;25.63;;
7359;SDS011;3720;48.274;7.796;2024-01-11T04:49:18;51.43;;;24.27;;
7359;SDS011;3720;48.274;7.796;2024-01-11T04:51:50;51.43;;;24.93;;
7359;SDS011;3720;48.274;7.796;2024-01-11T04:54:22;54.23;;;25.07;;
7359;SDS011;3720;48.274;7.796;2024-01-11T04:56:55;55.10;;;25.17;;
7359;SDS011;3720;48.274;7.796;2024-01-11T04:59:27;55.17;;;25.53;;
7359;SDS011;3720;48.274;7.796;2024-01-11T05:01:59;54.87;;;25.77;;
7359;SDS011;3720;48.274;7.796;2024-01-11T05:04:31;55.77;;;25.90;;
7359;SDS011;3720;48.274;7.796;2024-01-11T05:07:03;55.23;;;24.63;;
7359;SDS011;3720;48.274;7.796;2024-01-11T05:09:35;54.23;;;26.47;;
7359;SDS011;3720;48.274;7.796;2024-01-11T05:12:09;55.37;;;26.83;;
7359;SDS011;3720;48.274;7.796;2024-01-11T05:14:41;57.30;;;27.07;;
7359;SDS011;3720;48.274;7.796;2024-01-11T05:17:12;54.57;;;26.37;;
7359;SDS011;3720;48.274;7.796;2024-01-11T05:19:44;58.13;;;26.60;;
7359;SDS011;3720;48.274;7.796;2024-01-11T05:22:16;59.17;;;26.30;;
7359;SDS011;3720;48.274;7.796;2024-01-11T05:24:49;53.20;;;25.37;;
7359;SDS011;3720;48.274;7.796;2024-01-11T05:27:22;55.93;;;25.07;;
7359;SDS011;3720;48.274;7.796;2024-01-11T05:29:54;56.97;;;25.87;;
7359;SDS011;3720;48.274;7.796;2024-01-11T05:32:25;56.27;;;25.47;;
7359;SDS011;3720;48.274;7.796;2024-01-11T05:34:57;50.97;;;24.10;;
7359;SDS011;3720;48.274;7.796;2024-01-11T05:37:29;50.27;;;24.10;;
7359;SDS011;3720;48.274;7.796;2024-01-11T05:40:01;50.47;;;23.90;;
7359;SDS011;3720;48.274;7.796;2024-01-11T05:42:34;50.57;;;24.13;;
7359;SDS011;3720;48.274;7.796;2024-01-11T05:45:07;51.50;;;23.97;;
7359;SDS011;3720;48.274;7.796;2024-01-11T05:47:39;52.17;;;24.83;;
7359;SDS011;3720;48.274;7.796;2024-01-11T05:50:11;50.80;;;24.03;;
7359;SDS011;3720;48.274;7.796;2024-01-11T05:52:43;56.83;;;25.60;;
7359;SDS011;3720;48.274;7.796;2024-01-11T05:55:15;55.13;;;25.30;;
7359;SDS011;3720;48.274;7.796;2024-01-11T05:57:49;56.13;;;25.40;;
7359;SDS011;3720;48.274;7.796;2024-01-11T06:00:21;55.77;;;24.47;;
7359;SDS011;3720;48.274;7.796;2024-01-11T06:02:53;56.13;;;24.30;;
7359;SDS011;3720;48.274;7.796;2024-01-11T06:05:25;53.80;;;24.30;;
7359;SDS011;3720;48.274;7.796;2024-01-11T06:07:56;50.30;;;24.70;;
7359;SDS011;3720;48.274;7.796;2024-01-11T06:10:28;54.77;;;24.73;;
7359;SDS011;3720;48.274;7.796;2024-01-11T06:13:02;51.87;;;24.63;;
7359;SDS011;3720;48.274;7.796;2024-01-11T06:15:34;51.93;;;23.87;;
7359;SDS011;3720;48.274;7.796;2024-01-11T06:18:06;53.27;;;24.03;;
7359;SDS011;3720;48.274;7.796;2024-01-11T06:20:38;50.87;;;23.97;;
7359;SDS011;3720;48.274;7.796;2024-01-11T06:23:10;52.63;;;25.37;;
7359;SDS011;3720;48.274;7.796;2024-01-11T06:25:42;54.00;;;24.80;;
7359;SDS011;3720;48.274;7.796;2024-01-11T06:28:16;50.33;;;24.97;;
7359;SDS011;3720;48.274;7.796;2024-01-11T06:30:48;53.87;;;25.20;;
7359;SDS011;3720;48.274;7.796;2024-01-11T06:33:20;52.30;;;24.67;;
7359;SDS011;3720;48.274;7.796;2024-01-11T06:35:52;53.70;;;25.27;;
7359;SDS011;3720;48.274;7.796;2024-01-11T06:38:23;58.73;;;28.07;;
7359;SDS011;3720;48.274;7.796;2024-01-11T06:40:55;59.97;;;30.87;;
7359;SDS011;3720;48.274;7.796;2024-01-11T06:43:29;59.00;;;28.70;;
7359;SDS011;3720;48.274;7.796;2024-01-11T06:46:04;50.90;;;24.73;;
7359;SDS011;3720;48.274;7.796;2024-01-11T06:48:36;52.77;;;24.27;;
7359;SDS011;3720;48.274;7.796;2024-01-11T06:51:08;49.47;;;23.33;;
7359;SDS011;3720;48.274;7.796;2024-01-11T06:53:40;52.20;;;23.57;;
7359;SDS011;3720;48.274;7.796;2024-01-11T06:56:14;50.43;;;23.23;;
7359;SDS011;3720;48.274;7.796;2024-01-11T06:58:48;47.23;;;23.10;;
7359;SDS011;3720;48.274;7.796;2024-01-11T07:01:20;53.33;;;23.80;;
7359;SDS011;3720;48.274;7.796;2024-01-11T07:03:52;47.50;;;22.67;;
7359;SDS011;3720;48.274;7.796;2024-01-11T07:06:24;49.60;;;23.97;;
7359;SDS011;3720;48.274;7.796;2024-01-11T07:08:56;46.87;;;23.53;;
7359;SDS011;3720;48.274;7.796;2024-01-11T07:11:28;50.20;;;23.40;;
7359;SDS011;3720;48.274;7.796;2024-01-11T07:14:01;50.20;;;22.77;;
7359;SDS011;3720;48.274;7.796;2024-01-11T07:16:34;50.70;;;23.47;;
7359;SDS011;3720;48.274;7.796;2024-01-11T07:19:06;53.23;;;25.17;;
7359;SDS011;3720;48.274;7.796;2024-01-11T07:21:38;52.60;;;24.57;;
7359;SDS011;3720;48.274;7.796;2024-01-11T07:24:10;58.97;;;25.67;;
7359;SDS011;3720;48.274;7.796;2024-01-11T07:26:41;55.80;;;25.30;;
7359;SDS011;3720;48.274;7.796;2024-01-11T07:29:15;60.83;;;27.13;;
7359;SDS011;3720;48.274;7.796;2024-01-11T07:31:46;55.03;;;26.53;;
7359;SDS011;3720;48.274;7.796;2024-01-11T07:34:18;59.33;;;26.77;;
7359;SDS011;3720;48.274;7.796;2024-01-11T07:36:51;62.57;;;27.60;;
7359;SDS011;3720;48.274;7.796;2024-01-11T07:39:23;62.40;;;28.73;;
7359;SDS011;3720;48.274;7.796;2024-01-11T07:41:55;68.10;;;30.33;;
7359;SDS011;3720;48.274;7.796;2024-01-11T07:44:28;65.00;;;30.37;;
7359;SDS011;3720;48.274;7.796;2024-01-11T07:47:00;71.83;;;32.73;;
7359;SDS011;3720;48.274;7.796;2024-01-11T07:49:32;68.73;;;31.10;;
7359;SDS011;3720;48.274;7.796;2024-01-11T07:52:04;74.83;;;31.33;;
7359;SDS011;3720;48.274;7.796;2024-01-11T07:54:36;70.00;;;31.37;;
7359;SDS011;3720;48.274;7.796;2024-01-11T07:57:08;66.23;;;30.63;;
7359;SDS011;3720;48.274;7.796;2024-01-11T07:59:41;62.30;;;29.53;;
7359;SDS011;3720;48.274;7.796;2024-01-11T08:02:13;63.03;;;28.77;;
7359;SDS011;3720;48.274;7.796;2024-01-11T08:04:46;61.20;;;28.80;;
7359;SDS011;3720;48.274;7.796;2024-01-11T08:07:18;65.00;;;29.60;;
7359;SDS011;3720;48.274;7.796;2024-01-11T08:09:50;63.53;;;29.93;;
7359;SDS011;3720;48.274;7.796;2024-01-11T08:12:22;61.43;;;30.30;;
7359;SDS011;3720;48.274;7.796;2024-01-11T08:14:55;64.70;;;30.77;;
7359;SDS011;3720;48.274;7.796;2024-01-11T08:17:27;81.73;;;33.47;;
7359;SDS011;3720;48.274;7.796;2024-01-11T08:19:58;88.33;;;36.80;;
7359;SDS011;3720;48.274;7.796;2024-01-11T08:22:30;85.50;;;36.37;;
7359;SDS011;3720;48.274;7.796;2024-01-11T08:25:04;81.70;;;35.57;;
7359;SDS011;3720;48.274;7.796;2024-01-11T08:27:37;83.43;;;36.03;;
7359;SDS011;3720;48.274;7.796;2024-01-11T08:30:11;83.40;;;35.33;;
7359;SDS011;3720;48.274;7.796;2024-01-11T08:32:43;81.43;;;37.50;;
7359;SDS011;3720;48.274;7.796;2024-01-11T08:35:15;86.60;;;40.33;;
7359;SDS011;3720;48.274;7.796;2024-01-11T08:37:47;76.97;;;36.13;;
7359;SDS011;3720;48.274;7.796;2024-01-11T08:40:19;74.93;;;34.77;;
7359;SDS011;3720;48.274;7.796;2024-01-11T08:42:51;71.77;;;34.43;;
7359;SDS011;3720;48.274;7.796;2024-01-11T08:45:24;70.43;;;32.83;;
7359;SDS011;3720;48.274;7.796;2024-01-11T08:47:56;72.17;;;32.83;;
7359;SDS011;3720;48.274;7.796;2024-01-11T08:50:28;69.97;;;32.73;;
7359;SDS011;3720;48.274;7.796;2024-01-11T08:52:59;71.97;;;33.73;;
7359;SDS011;3720;48.274;7.796;2024-01-11T08:55:31;73.50;;;35.43;;
7359;SDS011;3720;48.274;7.796;2024-01-11T08:58:04;73.33;;;33.03;;
7359;SDS011;3720;48.274;7.796;2024-01-11T09:00:37;65.10;;;33.27;;
7359;SDS011;3720;48.274;7.796;2024-01-11T09:03:09;70.50;;;33.03;;
7359;SDS011;3720;48.274;7.796;2024-01-11T09:05:41;62.63;;;30.97;;
7359;SDS011;3720;48.274;7.796;2024-01-11T09:08:13;61.63;;;30.73;;
7359;SDS011;3720;48.274;7.796;2024-01-11T09:10:45;66.77;;;31.10;;
7359;SDS011;3720;48.274;7.796;2024-01-11T09:13:17;65.90;;;30.00;;
7359;SDS011;3720;48.274;7.796;2024-01-11T09:15:50;63.70;;;30.20;;
7359;SDS011;3720;48.274;7.796;2024-01-11T09:18:22;63.17;;;30.20;;
7359;SDS011;3720;48.274;7.796;2024-01-11T09:20:54;61.77;;;30.23;;
7359;SDS011;3720;48.274;7.796;2024-01-11T09:23:26;58.20;;;29.20;;
7359;SDS011;3720;48.274;7.796;2024-01-11T09:25:58;65.47;;;30.43;;
7359;SDS011;3720;48.274;7.796;2024-01-11T09:28:29;63.10;;;28.93;;
7359;SDS011;3720;48.274;7.796;2024-01-11T09:31:03;63.33;;;29.73;;
7359;SDS011;3720;48.274;7.796;2024-01-11T09:33:35;61.23;;;28.73;;
7359;SDS011;3720;48.274;7.796;2024-01-11T09:36:07;55.90;;;28.17;;
7359;SDS011;3720;48.274;7.796;2024-01-11T09:38:39;61.05;;;28.55;;
7359;SDS011;3720;48.274;7.796;2024-01-11T09:41:12;65.30;;;30.13;;
7359;SDS011;3720;48.274;7.796;2024-01-11T09:43:44;61.65;;;28.95;;
7359;SDS011;3720;48.274;7.796;2024-01-11T09:46:20;61.60;;;29.92;;
7359;SDS011;3720;48.274;7.796;2024-01-11T09:48:54;54.97;;;27.67;;
7359;SDS011;3720;48.274;7.796;2024-01-11T09:51:28;57.88;;;28.60;;
7359;SDS011;3720;48.274;7.796;2024-01-11T09:54:01;57.60;;;29.40;;
7359;SDS011;3720;48.274;7.796;2024-01-11T09:56:34;56.40;;;28.17;;
7359;SDS011;3720;48.274;7.796;2024-01-11T09:59:06;55.75;;;28.23;;
7359;SDS011;3720;48.274;7.796;2024-01-11T10:01:42;58.88;;;29.58;;
7359;SDS011;3720;48.274;7.796;2024-01-11T10:04:14;58.70;;;28.27;;
7359;SDS011;3720;48.274;7.796;2024-01-11T10:06:47;63.22;;;30.95;;
7359;SDS011;3720;48.274;7.796;2024-01-11T10:09:22;58.03;;;31.38;;
7359;SDS011;3720;48.274;7.796;2024-01-11T10:11:53;53.13;;;28.55;;
7359;SDS011;3720;48.274;7.796;2024-01-11T10:14:26;58.63;;;29.98;;
7359;SDS011;3720;48.274;7.796;2024-01-11T10:16:59;54.55;;;28.55;;
7359;SDS011;3720;48.274;7.796;2024-01-11T10:19:31;50.80;;;27.52;;
7359;SDS011;3720;48.274;7.796;2024-01-11T10:22:03;54.47;;;28.52;;
7359;SDS011;3720;48.274;7.796;2024-01-11T10:24:36;52.65;;;28.42;;
7359;SDS011;3720;48.274;7.796;2024-01-11T10:27:08;54.28;;;28.40;;
7359;SDS011;3720;48.274;7.796;2024-01-11T10:29:40;54.85;;;28.30;;
7359;SDS011;3720;48.274;7.796;2024-01-11T10:32:15;55.38;;;28.15;;
7359;SDS011;3720;48.274;7.796;2024-01-11T10:34:47;53.47;;;28.45;;
7359;SDS011;3720;48.274;7.796;2024-01-11T10:37:20;50.80;;;27.58;;
7359;SDS011;3720;48.274;7.796;2024-01-11T10:39:53;54.70;;;29.02;;
7359;SDS011;3720;48.274;7.796;2024-01-11T10:42:28;49.95;;;28.20;;
7359;SDS011;3720;48.274;7.796;2024-01-11T10:45:02;51.70;;;28.88;;
7359;SDS011;3720;48.274;7.796;2024-01-11T10:47:39;55.00;;;29.88;;
7359;SDS011;3720;48.274;7.796;2024-01-11T10:50:18;50.13;;;29.55;;
7359;SDS011;3720;48.274;7.796;2024-01-11T10:52:54;52.55;;;28.80;;
7359;SDS011;3720;48.274;7.796;2024-01-11T10:55:33;52.90;;;29.60;;
7359;SDS011;3720;48.274;7.796;2024-01-11T10:58:06;52.58;;;28.25;;
7359;SDS011;3720;48.274;7.796;2024-01-11T11:00:38;51.60;;;28.55;;
7359;SDS011;3720;48.274;7.796;2024-01-11T11:03:12;53.75;;;29.00;;
7359;SDS011;3720;48.274;7.796;2024-01-11T11:05:45;52.95;;;29.50;;
7359;SDS011;3720;48.274;7.796;2024-01-11T11:08:20;52.45;;;29.40;;
7359;SDS011;3720;48.274;7.796;2024-01-11T11:10:55;55.90;;;29.40;;
7359;SDS011;3720;48.274;7.796;2024-01-11T11:13:27;49.50;;;28.45;;
7359;SDS011;3720;48.274;7.796;2024-01-11T11:15:59;51.97;;;29.13;;
7359;SDS011;3720;48.274;7.796;2024-01-11T11:18:35;50.95;;;29.63;;
7359;SDS011;3720;48.274;7.796;2024-01-11T11:21:08;49.95;;;28.60;;
7359;SDS011;3720;48.274;7.796;2024-01-11T11:23:41;66.47;;;33.30;;
7359;SDS011;3720;48.274;7.796;2024-01-11T11:26:15;51.75;;;29.60;;
7359;SDS011;3720;48.274;7.796;2024-01-11T11:28:48;49.85;;;29.20;;
7359;SDS011;3720;48.274;7.796;2024-01-11T11:31:36;50.47;;;28.83;;
7359;SDS011;3720;48.274;7.796;2024-01-11T11:34:11;52.92;;;29.75;;
7359;SDS011;3720;48.274;7.796;2024-01-11T11:36:45;51.42;;;30.23;;
7359;SDS011;3720;48.274;7.796;2024-01-11T11:39:19;53.45;;;29.55;;
7359;SDS011;3720;48.274;7.796;2024-01-11T11:41:51;50.65;;;29.58;;
7359;SDS011;3720;48.274;7.796;2024-01-11T11:44:27;54.95;;;30.27;;
7359;SDS011;3720;48.274;7.796;2024-01-11T11:47:17;49.92;;;29.52;;
7359;SDS011;3720;48.274;7.796;2024-01-11T11:49:58;48.42;;;28.65;;
7359;SDS011;3720;48.274;7.796;2024-01-11T11:52:36;50.65;;;29.60;;
7359;SDS011;3720;48.274;7.796;2024-01-11T11:55:09;47.00;;;27.80;;
7359;SDS011;3720;48.274;7.796;2024-01-11T11:57:42;49.08;;;28.85;;
7359;SDS011;3720;48.274;7.796;2024-01-11T12:00:15;49.03;;;29.58;;
7359;SDS011;3720;48.274;7.796;2024-01-11T12:02:47;48.85;;;29.13;;
7359;SDS011;3720;48.274;7.796;2024-01-11T12:05:21;49.53;;;28.75;;
7359;SDS011;3720;48.274;7.796;2024-01-11T12:07:52;49.75;;;29.15;;
7359;SDS011;3720;48.274;7.796;2024-01-11T12:10:25;48.25;;;28.95;;
7359;SDS011;3720;48.274;7.796;2024-01-11T12:12:57;53.85;;;30.17;;
7359;SDS011;3720;48.274;7.796;2024-01-11T12:15:30;49.08;;;28.40;;
7359;SDS011;3720;48.274;7.796;2024-01-11T12:18:02;51.88;;;30.10;;
7359;SDS011;3720;48.274;7.796;2024-01-11T12:20:38;53.53;;;30.20;;
7359;SDS011;3720;48.274;7.796;2024-01-11T12:23:10;49.15;;;29.08;;
7359;SDS011;3720;48.274;7.796;2024-01-11T12:25:43;49.90;;;27.98;;
7359;SDS011;3720;48.274;7.796;2024-01-11T12:28:16;48.97;;;29.00;;
7359;SDS011;3720;48.274;7.796;2024-01-11T12:30:48;47.75;;;29.13;;
7359;SDS011;3720;48.274;7.796;2024-01-11T12:33:19;48.95;;;29.20;;
7359;SDS011;3720;48.274;7.796;2024-01-11T12:35:53;53.70;;;29.35;;
7359;SDS011;3720;48.274;7.796;2024-01-11T12:38:25;51.22;;;29.50;;
7359;SDS011;3720;48.274;7.796;2024-01-11T12:40:57;50.80;;;29.20;;
7359;SDS011;3720;48.274;7.796;2024-01-11T12:43:29;49.45;;;29.23;;
7359;SDS011;3720;48.274;7.796;2024-01-11T12:46:01;46.70;;;28.27;;
7359;SDS011;3720;48.274;7.796;2024-01-11T12:48:33;52.53;;;29.52;;
7359;SDS011;3720;48.274;7.796;2024-01-11T12:51:07;50.70;;;30.00;;
7359;SDS011;3720;48.274;7.796;2024-01-11T12:53:38;50.83;;;29.38;;
7359;SDS011;3720;48.274;7.796;2024-01-11T12:56:10;48.85;;;29.33;;
7359;SDS011;3720;48.274;7.796;2024-01-11T12:58:45;51.72;;;30.65;;
7359;SDS011;3720;48.274;7.796;2024-01-11T13:01:17;51.67;;;30.20;;
7359;SDS011;3720;48.274;7.796;2024-01-11T13:03:49;51.35;;;30.75;;
7359;SDS011;3720;48.274;7.796;2024-01-11T13:06:23;52.95;;;30.42;;
7359;SDS011;3720;48.274;7.796;2024-01-11T13:08:56;50.80;;;29.67;;
7359;SDS011;3720;48.274;7.796;2024-01-11T13:11:28;51.08;;;30.58;;
7359;SDS011;3720;48.274;7.796;2024-01-11T13:13:59;52.03;;;29.83;;
7359;SDS011;3720;48.274;7.796;2024-01-11T13:16:36;51.85;;;29.95;;
7359;SDS011;3720;48.274;7.796;2024-01-11T13:19:08;49.45;;;29.52;;
7359;SDS011;3720;48.274;7.796;2024-01-11T13:21:42;53.58;;;30.48;;
7359;SDS011;3720;48.274;7.796;2024-01-11T13:24:14;57.63;;;30.83;;
7359;SDS011;3720;48.274;7.796;2024-01-11T13:26:46;56.05;;;30.70;;
7359;SDS011;3720;48.274;7.796;2024-01-11T13:29:17;49.20;;;29.45;;
7359;SDS011;3720;48.274;7.796;2024-01-11T13:31:49;52.30;;;29.80;;
7359;SDS011;3720;48.274;7.796;2024-01-11T13:34:21;52.88;;;30.60;;
7359;SDS011;3720;48.274;7.796;2024-01-11T13:36:54;49.70;;;29.08;;
7359;SDS011;3720;48.274;7.796;2024-01-11T13:39:29;50.90;;;30.33;;
7359;SDS011;3720;48.274;7.796;2024-01-11T13:42:01;55.30;;;31.83;;
7359;SDS011;3720;48.274;7.796;2024-01-11T13:44:39;55.90;;;31.08;;
7359;SDS011;3720;48.274;7.796;2024-01-11T13:47:12;51.00;;;29.98;;
7359;SDS011;3720;48.274;7.796;2024-01-11T13:49:44;52.08;;;30.05;;
7359;SDS011;3720;48.274;7.796;2024-01-11T13:52:18;58.03;;;30.92;;
7359;SDS011;3720;48.274;7.796;2024-01-11T13:54:50;53.75;;;31.20;;
7359;SDS011;3720;48.274;7.796;2024-01-11T13:57:22;53.75;;;30.27;;
7359;SDS011;3720;48.274;7.796;2024-01-11T13:59:53;52.83;;;30.52;;
7359;SDS011;3720;48.274;7.796;2024-01-11T14:02:25;63.78;;;32.70;;
7359;SDS011;3720;48.274;7.796;2024-01-11T14:04:57;56.90;;;32.53;;
7359;SDS011;3720;48.274;7.796;2024-01-11T14:07:30;54.13;;;30.92;;
7359;SDS011;3720;48.274;7.796;2024-01-11T14:10:02;54.88;;;31.30;;
7359;SDS011;3720;48.274;7.796;2024-01-11T14:12:35;51.22;;;30.75;;
7359;SDS011;3720;48.274;7.796;2024-01-11T14:15:08;55.08;;;31.77;;
7359;SDS011;3720;48.274;7.796;2024-01-11T14:17:41;54.90;;;32.08;;
7359;SDS011;3720;48.274;7.796;2024-01-11T14:20:13;58.08;;;31.42;;
7359;SDS011;3720;48.274;7.796;2024-01-11T14:22:47;54.22;;;31.27;;
7359;SDS011;3720;48.274;7.796;2024-01-11T14:25:20;51.35;;;30.88;;
7359;SDS011;3720;48.274;7.796;2024-01-11T14:27:52;53.42;;;30.92;;
7359;SDS011;3720;48.274;7.796;2024-01-11T14:30:24;59.28;;;32.08;;
7359;SDS011;3720;48.274;7.796;2024-01-11T14:32:56;54.67;;;31.52;;
7359;SDS011;3720;48.274;7.796;2024-01-11T14:35:28;50.88;;;30.63;;
7359;SDS011;3720;48.274;7.796;2024-01-11T14:38:02;54.88;;;31.20;;
7359;SDS011;3720;48.274;7.796;2024-01-11T14:40:34;53.55;;;31.35;;
7359;SDS011;3720;48.274;7.796;2024-01-11T14:43:06;53.78;;;30.63;;
7359;SDS011;3720;48.274;7.796;2024-01-11T14:45:39;53.17;;;30.98;;
7359;SDS011;3720;48.274;7.796;2024-01-11T14:48:11;55.47;;;30.48;;
7359;SDS011;3720;48.274;7.796;2024-01-11T14:50:43;52.42;;;31.30;;
7359;SDS011;3720;48.274;7.796;2024-01-11T14:53:16;53.53;;;30.02;;
7359;SDS011;3720;48.274;7.796;2024-01-11T14:55:48;51.38;;;30.35;;
7359;SDS011;3720;48.274;7.796;2024-01-11T14:58:20;54.75;;;31.48;;
7359;SDS011;3720;48.274;7.796;2024-01-11T15:00:52;54.55;;;32.17;;
7359;SDS011;3720;48.274;7.796;2024-01-11T15:03:24;54.88;;;30.73;;
7359;SDS011;3720;48.274;7.796;2024-01-11T15:05:56;54.15;;;31.05;;
7359;SDS011;3720;48.274;7.796;2024-01-11T15:08:29;54.20;;;30.92;;
7359;SDS011;3720;48.274;7.796;2024-01-11T15:11:01;57.20;;;32.95;;
7359;SDS011;3720;48.274;7.796;2024-01-11T15:13:33;63.25;;;34.40;;
7359;SDS011;3720;48.274;7.796;2024-01-11T15:16:05;56.58;;;31.75;;
7359;SDS011;3720;48.274;7.796;2024-01-11T15:18:37;61.17;;;34.33;;
7359;SDS011;3720;48.274;7.796;2024-01-11T15:21:09;60.05;;;33.88;;